createdAt,value
2019-01-21T00:00:24.620Z,8.76
2019-01-21T00:02:28.760Z,10.27
2019-01-21T00:03:28.990Z,11.31
2019-01-21T00:05:33.152Z,11.88
2019-01-21T00:06:33.385Z,14.23
2019-01-21T00:08:37.540Z,17.90
2019-01-21T00:09:37.759Z,19.88
2019-01-21T00:11:41.918Z,22.33
2019-01-21T00:12:42.152Z,20.82
2019-01-21T00:14:46.319Z,15.45
2019-01-21T00:15:46.571Z,13.57
2019-01-21T00:17:50.690Z,15.36
2019-01-21T00:18:50.924Z,14.41
2019-01-21T00:20:55.087Z,15.45
2019-01-21T00:21:55.319Z,16.67
2019-01-21T00:23:59.458Z,17.24
2019-01-21T00:24:59.694Z,16.77
2019-01-21T00:27:03.855Z,20.54
2019-01-21T00:28:04.089Z,22.05
2019-01-21T00:30:08.288Z,22.89
2019-01-21T00:31:08.489Z,22.33
2019-01-21T00:33:12.624Z,25.53
2019-01-21T00:34:12.858Z,25.91
2019-01-21T00:36:05.946Z,21.67
2019-01-21T00:37:06.182Z,18.65
2019-01-21T00:39:10.320Z,14.89
2019-01-21T00:40:10.552Z,13.57
2019-01-21T00:42:14.714Z,13.47
2019-01-21T00:43:15.010Z,13.19
2019-01-21T00:45:19.111Z,13.00
2019-01-21T00:46:19.351Z,13.76
2019-01-21T00:48:23.484Z,14.51
2019-01-21T00:49:23.718Z,14.70
2019-01-21T00:51:27.873Z,14.23
2019-01-21T00:52:28.119Z,15.45
2019-01-21T00:54:32.272Z,17.14
2019-01-21T00:55:32.497Z,19.12
2019-01-21T00:57:36.656Z,23.93
2019-01-21T00:58:36.888Z,26.95
2019-01-21T01:00:41.057Z,25.91
2019-01-21T01:01:41.290Z,29.77
2019-01-21T01:03:45.430Z,34.58
2019-01-21T01:04:45.656Z,32.79
2019-01-21T01:06:49.822Z,33.45
2019-01-21T01:07:50.056Z,33.35
2019-01-21T01:09:54.193Z,31.37
2019-01-21T01:10:54.430Z,32.41
2019-01-21T01:12:58.588Z,33.26
2019-01-21T01:13:58.821Z,31.28
2019-01-21T01:15:51.922Z,25.53
2019-01-21T01:16:52.155Z,22.24
2019-01-21T01:18:56.340Z,21.11
2019-01-21T01:19:56.532Z,20.73
2019-01-21T01:22:00.694Z,12.72
2019-01-21T01:23:00.931Z,14.04
2019-01-21T01:25:06.090Z,17.33
2019-01-21T01:26:06.324Z,16.49
2019-01-21T01:28:10.484Z,16.02
2019-01-21T01:29:10.718Z,17.71
2019-01-21T01:31:14.853Z,17.90
2019-01-21T01:32:15.090Z,15.45
2019-01-21T01:34:19.245Z,15.83
2019-01-21T01:35:19.480Z,16.96
2019-01-21T01:37:23.638Z,11.97
2019-01-21T01:38:23.880Z,11.12
2019-01-21T01:40:28.011Z,12.73
2019-01-21T01:41:28.243Z,13.85
2019-01-21T01:43:32.411Z,17.91
2019-01-21T01:44:32.641Z,16.96
2019-01-21T01:46:25.723Z,18.85
2019-01-21T01:47:25.951Z,17.61
2019-01-21T01:49:30.118Z,19.69
2019-01-21T01:50:30.355Z,22.89
2019-01-21T01:52:34.524Z,25.34
2019-01-21T01:53:34.756Z,24.49
2019-01-21T01:55:38.897Z,28.83
2019-01-21T01:56:39.127Z,29.58
2019-01-21T01:58:43.286Z,17.80
2019-01-21T01:59:43.519Z,14.23
2019-01-21T02:01:47.662Z,14.41
2019-01-21T02:02:47.892Z,17.24
2019-01-21T02:04:52.053Z,22.24
2019-01-21T02:05:52.287Z,21.77
2019-01-21T02:07:56.443Z,21.11
2019-01-21T02:08:56.683Z,24.12
2019-01-21T02:11:00.819Z,30.99
2019-01-21T02:12:01.056Z,32.41
2019-01-21T02:14:05.215Z,40.61
2019-01-21T02:15:05.445Z,42.30
2019-01-21T02:17:09.582Z,43.15
2019-01-21T02:18:09.817Z,32.69
2019-01-21T02:20:13.973Z,21.95
2019-01-21T02:21:14.205Z,20.63
2019-01-21T02:23:18.366Z,19.97
2019-01-21T02:24:18.599Z,20.73
2019-01-21T02:26:11.666Z,22.89
2019-01-21T02:27:11.900Z,24.59
2019-01-21T02:29:16.056Z,25.81
2019-01-21T02:30:16.290Z,25.34
2019-01-21T02:32:20.434Z,28.64
2019-01-21T02:33:20.664Z,30.81
2019-01-21T02:35:24.818Z,34.01
2019-01-21T02:36:25.052Z,34.77
2019-01-21T02:38:29.197Z,44.09
2019-01-21T02:39:29.423Z,47.11
2019-01-21T02:41:33.581Z,53.05
2019-01-21T02:42:33.818Z,53.89
2019-01-21T02:44:38.985Z,57.07
2019-01-21T02:45:39.219Z,52.17
2019-01-21T02:47:43.354Z,34.75
2019-01-21T02:48:43.584Z,29.39
2019-01-21T02:50:47.751Z,27.23
2019-01-21T02:51:47.980Z,31.28
2019-01-21T02:53:52.128Z,35.71
2019-01-21T02:54:52.352Z,37.02
2019-01-21T02:56:56.510Z,39.57
2019-01-21T02:57:56.742Z,33.35
2019-01-21T03:00:00.922Z,30.43
2019-01-21T03:01:01.146Z,28.83
2019-01-21T03:03:05.286Z,25.34
2019-01-21T03:04:05.521Z,18.75
2019-01-21T03:05:58.611Z,14.60
2019-01-21T03:06:58.842Z,15.45
2019-01-21T03:09:02.978Z,15.64
2019-01-21T03:10:03.211Z,16.02
2019-01-21T03:12:07.369Z,19.41
2019-01-21T03:13:07.602Z,20.92
2019-01-21T03:15:11.763Z,25.34
2019-01-21T03:16:11.996Z,25.25
2019-01-21T03:18:16.169Z,27.98
2019-01-21T03:19:16.387Z,29.68
2019-01-21T03:21:20.545Z,29.86
2019-01-21T03:22:20.780Z,30.62
2019-01-21T03:24:24.910Z,23.18
2019-01-21T03:25:25.143Z,23.18
2019-01-21T03:27:29.301Z,24.21
2019-01-21T03:28:29.533Z,24.96
2019-01-21T03:30:33.681Z,25.81
2019-01-21T03:31:33.917Z,26.57
2019-01-21T03:33:38.069Z,26.95
2019-01-21T03:34:38.300Z,27.32
2019-01-21T03:36:31.394Z,27.23
2019-01-21T03:37:31.621Z,25.91
2019-01-21T03:39:35.769Z,25.15
2019-01-21T03:40:35.990Z,21.86
2019-01-21T03:42:40.153Z,20.63
2019-01-21T03:43:40.385Z,20.82
2019-01-21T03:45:44.524Z,20.35
2019-01-21T03:46:44.758Z,22.06
2019-01-21T03:48:48.919Z,23.57
2019-01-21T03:49:49.153Z,24.30
2019-01-21T03:51:53.319Z,23.66
2019-01-21T03:52:53.547Z,22.81
2019-01-21T03:54:57.694Z,21.77
2019-01-21T03:55:57.934Z,20.83
2019-01-21T03:58:02.093Z,18.85
2019-01-21T03:59:02.325Z,18.38
2019-01-21T04:01:06.459Z,17.06
2019-01-21T04:02:06.694Z,17.06
2019-01-21T04:04:10.860Z,16.59
2019-01-21T04:05:11.097Z,16.49
2019-01-21T04:07:15.249Z,16.68
2019-01-21T04:08:15.480Z,16.49
2019-01-21T04:10:19.623Z,16.21
2019-01-21T04:11:19.855Z,15.83
2019-01-21T04:13:24.018Z,15.74
2019-01-21T04:14:24.251Z,15.64
2019-01-21T04:16:17.318Z,17.91
2019-01-21T04:17:17.559Z,19.51
2019-01-21T04:19:21.710Z,20.36
2019-01-21T04:20:21.943Z,19.51
2019-01-21T04:22:26.107Z,18.66
2019-01-21T04:23:26.335Z,18.66
2019-01-21T04:25:30.486Z,17.91
2019-01-21T04:26:30.708Z,18.29
2019-01-21T04:28:34.876Z,20.92
2019-01-21T04:29:35.109Z,20.83
2019-01-21T04:31:39.247Z,20.92
2019-01-21T04:32:39.483Z,20.92
2019-01-21T04:34:43.652Z,20.17
2019-01-21T04:35:43.886Z,19.89
2019-01-21T04:37:48.052Z,23.47
2019-01-21T04:38:48.284Z,22.81
2019-01-21T04:40:52.428Z,21.49
2019-01-21T04:41:52.662Z,21.40
2019-01-21T04:43:56.828Z,22.34
2019-01-21T04:44:57.064Z,23.85
2019-01-21T04:47:01.207Z,25.73
2019-01-21T04:48:01.434Z,23.57
2019-01-21T04:50:05.600Z,21.87
2019-01-21T04:51:05.832Z,22.06
2019-01-21T04:53:09.992Z,21.40
2019-01-21T04:54:10.223Z,20.83
2019-01-21T04:56:03.303Z,20.07
2019-01-21T04:57:03.538Z,18.76
2019-01-21T04:59:07.702Z,17.72
2019-01-21T05:00:07.982Z,17.82
2019-01-21T05:02:13.124Z,17.82
2019-01-21T05:03:13.352Z,17.72
2019-01-21T05:05:17.516Z,17.82
2019-01-21T05:06:17.754Z,18.01
2019-01-21T05:08:21.932Z,18.29
2019-01-21T05:09:22.171Z,19.60
2019-01-21T05:11:26.311Z,19.79
2019-01-21T05:12:26.561Z,20.64
2019-01-21T05:14:30.708Z,22.25
2019-01-21T05:15:30.943Z,21.96
2019-01-21T05:17:35.082Z,20.64
2019-01-21T05:18:41.161Z,20.73
2019-01-21T05:20:39.481Z,20.37
2019-01-21T05:21:39.718Z,20.83
2019-01-21T05:23:43.896Z,23.57
2019-01-21T05:24:44.134Z,23.00
2019-01-21T05:26:48.272Z,19.70
2019-01-21T05:27:48.508Z,18.38
2019-01-21T05:29:52.666Z,19.79
2019-01-21T05:30:52.904Z,19.89
2019-01-21T05:32:57.043Z,21.87
2019-01-21T05:33:57.280Z,22.06
2019-01-21T05:35:50.364Z,22.25
2019-01-21T05:36:50.610Z,22.44
2019-01-21T05:38:54.737Z,23.38
2019-01-21T05:39:54.971Z,23.94
2019-01-21T05:41:59.127Z,21.02
2019-01-21T05:42:59.359Z,20.73
2019-01-21T05:45:03.526Z,19.23
2019-01-21T05:46:03.761Z,18.77
2019-01-21T05:48:07.901Z,19.13
2019-01-21T05:49:08.132Z,19.14
2019-01-21T05:51:12.293Z,22.34
2019-01-21T05:52:12.525Z,24.98
2019-01-21T05:54:16.699Z,23.39
2019-01-21T05:55:17.070Z,22.53
2019-01-21T05:57:21.214Z,21.50
2019-01-21T05:58:21.450Z,22.91
2019-01-21T06:00:25.600Z,22.82
2019-01-21T06:01:25.831Z,23.20
2019-01-21T06:03:29.964Z,23.20
2019-01-21T06:04:30.197Z,21.69
2019-01-21T06:06:23.277Z,20.84
2019-01-21T06:07:23.515Z,21.03
2019-01-21T06:09:28.700Z,20.94
2019-01-21T06:10:28.940Z,22.25
2019-01-21T06:12:33.071Z,26.12
2019-01-21T06:13:33.302Z,25.73
2019-01-21T06:15:37.465Z,25.09
2019-01-21T06:16:37.702Z,23.85
2019-01-21T06:18:41.840Z,23.01
2019-01-21T06:19:42.070Z,24.33
2019-01-21T06:21:46.234Z,24.98
2019-01-21T06:22:46.460Z,24.99
2019-01-21T06:24:51.643Z,25.56
2019-01-21T06:25:51.878Z,25.46
2019-01-21T06:27:57.026Z,24.62
2019-01-21T06:28:57.259Z,24.33
2019-01-21T06:31:01.420Z,24.52
2019-01-21T06:32:01.666Z,25.84
2019-01-21T06:34:05.795Z,26.68
2019-01-21T06:35:06.028Z,25.93
2019-01-21T06:37:10.190Z,26.97
2019-01-21T06:38:10.424Z,27.25
2019-01-21T06:40:14.600Z,25.37
2019-01-21T06:41:14.831Z,24.41
2019-01-21T06:43:18.972Z,23.86
2019-01-21T06:44:19.223Z,24.62
2019-01-21T06:46:12.307Z,24.99
2019-01-21T06:47:12.538Z,26.21
2019-01-21T06:49:16.671Z,24.52
2019-01-21T06:50:16.916Z,24.99
2019-01-21T06:52:21.063Z,25.18
2019-01-21T06:53:21.295Z,24.24
2019-01-21T06:55:25.439Z,24.43
2019-01-21T06:56:25.673Z,24.15
2019-01-21T06:58:29.836Z,21.41
2019-01-21T06:59:30.070Z,21.31
2019-01-21T07:01:34.248Z,18.86
2019-01-21T07:02:35.200Z,16.60
2019-01-21T07:04:38.642Z,15.94
2019-01-21T07:05:38.881Z,14.71
2019-01-21T07:07:43.015Z,14.33
2019-01-21T07:08:43.250Z,17.73
2019-01-21T07:10:47.414Z,19.81
2019-01-21T07:11:47.651Z,21.03
2019-01-21T07:13:51.789Z,20.94
2019-01-21T07:14:52.026Z,20.47
2019-01-21T07:16:56.186Z,21.03
2019-01-21T07:17:56.420Z,20.94
2019-01-21T07:20:00.594Z,22.16
2019-01-21T07:21:00.815Z,25.74
2019-01-21T07:23:04.957Z,26.69
2019-01-21T07:24:05.187Z,25.18
2019-01-21T07:25:58.274Z,26.78
2019-01-21T07:26:58.508Z,28.67
2019-01-21T07:29:02.649Z,28.58
2019-01-21T07:30:04.303Z,28.96
2019-01-21T07:32:07.047Z,29.33
2019-01-21T07:33:07.280Z,28.20
2019-01-21T07:35:11.446Z,28.39
2019-01-21T07:36:11.680Z,28.29
2019-01-21T07:38:15.830Z,28.86
2019-01-21T07:39:16.069Z,28.39
2019-01-21T07:41:20.219Z,27.35
2019-01-21T07:42:20.447Z,28.48
2019-01-21T07:44:24.589Z,30.36
2019-01-21T07:45:24.819Z,30.65
2019-01-21T07:47:28.980Z,30.08
2019-01-21T07:48:29.211Z,29.99
2019-01-21T07:50:33.384Z,29.90
2019-01-21T07:51:33.615Z,30.46
2019-01-21T07:53:37.755Z,33.11
2019-01-21T07:54:37.986Z,35.55
2019-01-21T07:56:31.087Z,38.85
2019-01-21T07:57:31.307Z,37.63
2019-01-21T07:59:35.441Z,29.33
2019-01-21T08:00:35.676Z,28.01
2019-01-21T08:02:39.835Z,29.80
2019-01-21T08:03:40.067Z,30.46
2019-01-21T08:05:45.238Z,32.92
2019-01-21T08:06:45.488Z,32.25
2019-01-21T08:08:49.608Z,30.08
2019-01-21T08:09:49.839Z,31.21
2019-01-21T08:11:55.013Z,31.21
2019-01-21T08:12:55.244Z,31.40
2019-01-21T08:14:59.381Z,33.11
2019-01-21T08:15:59.612Z,31.50
2019-01-21T08:18:03.770Z,30.65
2019-01-21T08:19:04.002Z,29.71
2019-01-21T08:21:08.157Z,33.11
2019-01-21T08:22:08.387Z,33.78
2019-01-21T08:24:12.530Z,43.38
2019-01-21T08:25:12.756Z,47.81
2019-01-21T08:27:16.919Z,37.92
2019-01-21T08:28:17.286Z,35.74
2019-01-21T08:30:21.323Z,35.84
2019-01-21T08:31:21.565Z,35.67
2019-01-21T08:33:25.730Z,33.69
2019-01-21T08:34:25.965Z,35.01
2019-01-21T08:36:19.053Z,36.99
2019-01-21T08:37:19.281Z,34.91
2019-01-21T08:39:23.419Z,38.50
2019-01-21T08:40:23.651Z,39.73
2019-01-21T08:42:27.810Z,40.39
2019-01-21T08:43:28.036Z,36.52
2019-01-21T08:45:32.176Z,32.93
2019-01-21T08:46:32.409Z,39.16
2019-01-21T08:48:36.583Z,44.64
2019-01-21T08:49:36.802Z,46.61
2019-01-21T08:51:40.961Z,46.52
2019-01-21T08:52:41.192Z,42.65
2019-01-21T08:54:45.351Z,41.61
2019-01-21T08:55:45.567Z,43.12
2019-01-21T08:57:49.725Z,46.42
2019-01-21T08:58:49.954Z,55.39
2019-01-21T09:00:54.092Z,50.29
2019-01-21T09:01:54.323Z,49.26
2019-01-21T09:03:58.485Z,59.26
2019-01-21T09:04:58.716Z,61.05
2019-01-21T09:07:02.878Z,48.32
2019-01-21T09:08:03.108Z,45.67
2019-01-21T09:10:07.251Z,42.67
2019-01-21T09:11:07.485Z,44.18
2019-01-21T09:13:11.645Z,54.19
2019-01-21T09:14:11.874Z,53.91
2019-01-21T09:16:04.939Z,61.18
2019-01-21T09:17:05.170Z,62.50
2019-01-21T09:19:09.337Z,60.89
2019-01-21T09:20:10.886Z,62.59
2019-01-21T09:22:13.735Z,66.09
2019-01-21T09:23:13.971Z,64.01
2019-01-21T09:25:18.111Z,70.34
2019-01-21T09:26:18.343Z,69.77
2019-01-21T09:28:22.505Z,65.46
2019-01-21T09:29:22.738Z,66.12
2019-01-21T09:31:26.878Z,72.64
2019-01-21T09:32:27.110Z,72.26
2019-01-21T09:34:31.273Z,75.38
2019-01-21T09:35:31.504Z,79.91
2019-01-21T09:37:35.687Z,81.52
2019-01-21T09:38:35.926Z,84.26
2019-01-21T09:40:40.063Z,84.16
2019-01-21T09:41:40.296Z,82.75
2019-01-21T09:43:44.460Z,90.59
2019-01-21T09:44:44.697Z,90.59
2019-01-21T09:46:48.838Z,88.32
2019-01-21T09:47:49.072Z,86.33
2019-01-21T09:49:53.235Z,89.26
2019-01-21T09:50:53.467Z,89.64
2019-01-21T09:52:57.649Z,93.94
2019-01-21T09:53:57.887Z,91.48
2019-01-21T09:55:50.953Z,97.15
2019-01-21T09:56:51.187Z,99.99
2019-01-21T09:58:55.355Z,99.99
2019-01-21T09:59:55.590Z,99.99
2019-01-21T10:01:59.735Z,99.99
2019-01-21T10:02:59.972Z,99.99
2019-01-21T10:05:04.141Z,99.99
2019-01-21T10:06:04.374Z,99.99
2019-01-21T10:08:08.520Z,99.99
2019-01-21T10:09:08.753Z,99.99
2019-01-21T10:11:12.918Z,99.99
2019-01-21T10:12:13.154Z,99.99
2019-01-21T10:14:17.317Z,99.99
2019-01-21T10:15:17.553Z,99.99
2019-01-21T10:17:21.712Z,99.99
2019-01-21T10:18:21.945Z,99.99
2019-01-21T10:20:26.113Z,99.99
2019-01-21T10:21:26.346Z,99.99
2019-01-21T10:23:30.516Z,99.99
2019-01-21T10:24:30.752Z,99.99
2019-01-21T10:26:23.829Z,99.99
2019-01-21T10:27:24.063Z,99.99
2019-01-21T10:29:28.240Z,99.99
2019-01-21T10:30:28.467Z,99.99
2019-01-21T10:32:32.626Z,99.99
2019-01-21T10:33:34.117Z,95.93
2019-01-21T10:35:37.038Z,92.52
2019-01-21T10:36:37.281Z,83.73
2019-01-21T10:38:41.438Z,71.12
2019-01-21T10:39:41.676Z,66.94
2019-01-21T10:41:45.857Z,72.57
2019-01-21T10:42:46.098Z,76.46
2019-01-21T10:44:50.274Z,76.20
2019-01-21T10:45:50.516Z,72.44
2019-01-21T10:47:54.694Z,65.22
2019-01-21T10:48:54.928Z,62.97
2019-01-21T10:50:59.107Z,57.39
2019-01-21T10:51:59.347Z,57.78
2019-01-21T10:54:03.511Z,62.97
2019-01-21T10:55:03.753Z,65.56
2019-01-21T10:57:08.955Z,64.43
2019-01-21T10:58:09.198Z,61.61
2019-01-21T11:00:13.386Z,61.01
2019-01-21T11:01:13.630Z,59.87
2019-01-21T11:03:17.800Z,59.62
2019-01-21T11:04:18.047Z,61.11
2019-01-21T11:06:11.170Z,62.75
2019-01-21T11:07:11.417Z,61.74
2019-01-21T11:09:15.586Z,57.74
2019-01-21T11:10:15.832Z,56.05
2019-01-21T11:12:20.027Z,53.09
2019-01-21T11:13:20.275Z,50.66
2019-01-21T11:15:25.477Z,53.78
2019-01-21T11:16:25.721Z,55.83
2019-01-21T11:18:29.893Z,53.41
2019-01-21T11:19:30.141Z,55.39
2019-01-21T11:21:34.340Z,53.52
2019-01-21T11:22:34.585Z,53.20
2019-01-21T11:24:38.763Z,51.18
2019-01-21T11:25:39.011Z,49.37
2019-01-21T11:27:43.204Z,47.58
2019-01-21T11:28:43.450Z,47.56
2019-01-21T11:30:48.658Z,47.30
2019-01-21T11:31:48.903Z,46.44
2019-01-21T11:33:53.076Z,46.61
2019-01-21T11:34:53.323Z,46.44
2019-01-21T11:36:57.520Z,52.86
2019-01-21T11:37:57.770Z,53.50
2019-01-21T11:40:01.944Z,58.10
2019-01-21T11:41:02.196Z,58.16
2019-01-21T11:43:06.382Z,54.44
2019-01-21T11:44:06.629Z,52.56
2019-01-21T11:45:59.755Z,50.97
2019-01-21T11:47:00.001Z,50.21
2019-01-21T11:49:04.174Z,48.44
2019-01-21T11:50:10.360Z,47.56
2019-01-21T11:52:08.618Z,50.96
2019-01-21T11:53:08.867Z,53.12
2019-01-21T11:55:13.050Z,54.64
2019-01-21T11:56:13.299Z,56.01
2019-01-21T11:58:17.491Z,59.71
2019-01-21T11:59:17.738Z,60.31
2019-01-21T12:01:21.934Z,57.10
2019-01-21T12:02:22.184Z,53.96
2019-01-21T12:04:26.366Z,52.47
2019-01-21T12:05:26.615Z,51.32
2019-01-21T12:07:31.828Z,48.80
2019-01-21T12:08:32.071Z,47.78
2019-01-21T12:10:36.243Z,46.75
2019-01-21T12:11:36.493Z,49.22
2019-01-21T12:13:40.687Z,52.15
2019-01-21T12:14:40.934Z,52.39
2019-01-21T12:16:34.037Z,55.50
2019-01-21T12:17:34.287Z,56.51
2019-01-21T12:19:38.474Z,55.39
2019-01-21T12:20:38.736Z,53.23
2019-01-21T12:22:42.933Z,53.95
2019-01-21T12:23:43.183Z,56.61
2019-01-21T12:25:47.449Z,58.61
2019-01-21T12:26:47.636Z,58.06
2019-01-21T12:28:51.908Z,55.22
2019-01-21T12:29:52.105Z,53.43
2019-01-21T12:31:57.292Z,53.67
2019-01-21T12:32:57.540Z,51.64
2019-01-21T12:35:01.728Z,48.54
2019-01-21T12:36:02.055Z,47.58
2019-01-21T12:38:06.453Z,46.54
2019-01-21T12:39:06.700Z,47.08
2019-01-21T12:41:10.947Z,48.99
2019-01-21T12:42:11.222Z,47.47
2019-01-21T12:44:15.500Z,48.23
2019-01-21T12:45:15.754Z,47.75
2019-01-21T12:47:19.932Z,47.03
2019-01-21T12:48:20.178Z,46.39
2019-01-21T12:50:24.382Z,44.58
2019-01-21T12:51:24.672Z,44.22
2019-01-21T12:53:28.869Z,42.82
2019-01-21T12:54:29.127Z,44.46
2019-01-21T12:56:23.250Z,44.65
2019-01-21T12:57:23.500Z,44.84
2019-01-21T12:59:27.775Z,44.73
2019-01-21T13:00:28.075Z,45.29
2019-01-21T13:02:32.284Z,47.37
2019-01-21T13:03:32.521Z,47.85
2019-01-21T13:05:36.766Z,47.47
2019-01-21T13:06:37.030Z,47.25
2019-01-21T13:08:41.227Z,46.97
2019-01-21T13:09:41.507Z,47.37
2019-01-21T13:11:45.674Z,47.54
2019-01-21T13:12:45.974Z,47.47
2019-01-21T13:14:50.167Z,54.99
2019-01-21T13:15:50.457Z,56.00
2019-01-21T13:17:54.624Z,53.04
2019-01-21T13:18:54.873Z,50.87
2019-01-21T13:20:59.075Z,49.54
2019-01-21T13:21:59.322Z,49.04
2019-01-21T13:24:03.509Z,51.14
2019-01-21T13:25:03.757Z,49.54
2019-01-21T13:27:07.931Z,49.40
2019-01-21T13:28:08.177Z,50.35
2019-01-21T13:30:12.366Z,51.91
2019-01-21T13:31:12.613Z,52.76
2019-01-21T13:33:16.783Z,52.89
2019-01-21T13:34:17.030Z,53.55
2019-01-21T13:36:10.147Z,53.27
2019-01-21T13:37:10.397Z,53.27
2019-01-21T13:39:14.611Z,52.09
2019-01-21T13:40:14.858Z,51.70
2019-01-21T13:42:19.022Z,51.49
2019-01-21T13:43:19.266Z,51.75
2019-01-21T13:45:23.451Z,53.65
2019-01-21T13:46:23.700Z,53.72
2019-01-21T13:48:27.866Z,55.21
2019-01-21T13:49:28.110Z,56.29
2019-01-21T13:51:32.388Z,54.13
2019-01-21T13:52:32.655Z,54.10
2019-01-21T13:54:36.894Z,56.35
2019-01-21T13:55:37.170Z,56.67
2019-01-21T13:57:41.336Z,56.00
2019-01-21T13:58:41.577Z,55.43
2019-01-21T14:00:45.781Z,53.65
2019-01-21T14:01:46.028Z,53.49
2019-01-21T14:03:50.198Z,53.11
2019-01-21T14:04:50.441Z,52.63
2019-01-21T14:06:54.782Z,53.43
2019-01-21T14:07:55.031Z,54.48
2019-01-21T14:10:00.246Z,55.21
2019-01-21T14:11:00.478Z,56.67
2019-01-21T14:13:04.665Z,55.17
2019-01-21T14:14:04.908Z,55.15
2019-01-21T14:15:58.090Z,56.29
2019-01-21T14:16:58.371Z,55.65
2019-01-21T14:19:02.572Z,53.75
2019-01-21T14:20:02.810Z,53.34
2019-01-21T14:22:07.074Z,55.30
2019-01-21T14:23:07.316Z,56.35
2019-01-21T14:25:11.645Z,56.80
2019-01-21T14:26:13.068Z,57.87
2019-01-21T14:28:16.095Z,57.97
2019-01-21T14:29:16.546Z,57.11
2019-01-21T14:31:20.579Z,57.59
2019-01-21T14:32:20.947Z,58.06
2019-01-21T14:34:25.122Z,57.24
2019-01-21T14:35:25.372Z,56.92
2019-01-21T14:37:29.560Z,57.11
2019-01-21T14:38:29.806Z,57.75
2019-01-21T14:40:33.964Z,58.41
2019-01-21T14:41:34.202Z,58.03
2019-01-21T14:43:38.413Z,59.17
2019-01-21T14:44:38.632Z,58.89
2019-01-21T14:46:31.719Z,59.43
2019-01-21T14:47:31.969Z,59.71
2019-01-21T14:49:36.149Z,61.20
2019-01-21T14:50:36.396Z,61.99
2019-01-21T14:52:40.612Z,61.49
2019-01-21T14:53:40.832Z,61.96
2019-01-21T14:55:45.995Z,64.11
2019-01-21T14:56:46.250Z,64.11
2019-01-21T14:58:50.421Z,64.05
2019-01-21T14:59:51.792Z,63.86
2019-01-21T15:01:54.810Z,63.67
2019-01-21T15:02:55.072Z,63.95
2019-01-21T15:04:59.242Z,64.40
2019-01-21T15:05:59.477Z,64.68
2019-01-21T15:08:03.656Z,64.87
2019-01-21T15:09:03.947Z,66.01
2019-01-21T15:11:08.048Z,66.20
2019-01-21T15:12:08.303Z,66.10
2019-01-21T15:14:12.466Z,67.11
2019-01-21T15:15:12.717Z,67.21
2019-01-21T15:17:16.921Z,67.68
2019-01-21T15:18:17.157Z,68.44
2019-01-21T15:20:21.375Z,70.39
2019-01-21T15:21:21.606Z,71.25
2019-01-21T15:23:25.773Z,73.20
2019-01-21T15:24:25.992Z,74.24
2019-01-21T15:26:19.031Z,74.81
2019-01-21T15:27:19.333Z,74.75
2019-01-21T15:29:23.513Z,75.95
2019-01-21T15:30:23.695Z,77.75
2019-01-21T15:32:27.847Z,82.06
2019-01-21T15:33:28.076Z,84.33
2019-01-21T15:35:33.288Z,89.44
2019-01-21T15:36:33.504Z,91.86
2019-01-21T15:38:37.858Z,97.25
2019-01-21T15:39:38.023Z,98.58
2019-01-21T15:41:42.055Z,99.99
2019-01-21T15:42:42.324Z,99.99
2019-01-21T15:44:46.498Z,99.99
2019-01-21T15:45:50.755Z,99.99
2019-01-21T15:47:50.867Z,99.99
2019-01-21T15:48:51.090Z,99.99
2019-01-21T15:50:55.255Z,99.99
2019-01-21T15:51:55.485Z,99.99
2019-01-21T15:53:59.669Z,99.99
2019-01-21T15:54:59.896Z,99.99
2019-01-21T15:57:05.061Z,99.99
2019-01-21T15:58:05.297Z,99.99
2019-01-21T16:00:09.474Z,99.99
2019-01-21T16:01:09.710Z,99.99
2019-01-21T16:03:13.869Z,99.99
2019-01-21T16:04:14.096Z,99.99
2019-01-21T16:06:07.193Z,99.99
2019-01-21T16:07:07.429Z,99.99
2019-01-21T16:09:11.593Z,99.99
2019-01-21T16:10:11.831Z,99.99
2019-01-21T16:12:15.984Z,99.99
2019-01-21T16:13:16.220Z,99.99
2019-01-21T16:15:20.396Z,99.99
2019-01-21T16:16:20.631Z,99.99
2019-01-21T16:18:24.778Z,99.99
2019-01-21T16:19:25.013Z,99.99
2019-01-21T16:21:30.196Z,99.99
2019-01-21T16:22:30.433Z,99.99
2019-01-21T16:24:34.630Z,99.99
2019-01-21T16:25:34.843Z,99.99
2019-01-21T16:27:38.992Z,99.99
2019-01-21T16:28:39.229Z,99.99
2019-01-21T16:30:43.430Z,99.99
2019-01-21T16:31:43.622Z,99.99
2019-01-21T16:33:47.768Z,99.99
2019-01-21T16:34:47.998Z,99.99
2019-01-21T16:36:52.198Z,98.42
2019-01-21T16:37:52.404Z,95.50
2019-01-21T16:39:56.572Z,82.47
2019-01-21T16:40:56.810Z,82.76
2019-01-21T16:43:00.950Z,85.11
2019-01-21T16:44:01.195Z,85.40
2019-01-21T16:45:54.288Z,82.95
2019-01-21T16:46:54.523Z,81.81
2019-01-21T16:48:58.674Z,67.75
2019-01-21T16:49:58.913Z,73.79
2019-01-21T16:52:03.081Z,86.91
2019-01-21T16:53:03.318Z,89.27
2019-01-21T16:55:07.486Z,87.85
2019-01-21T16:56:07.720Z,82.10
2019-01-21T16:58:11.865Z,70.30
2019-01-21T16:59:12.099Z,73.03
2019-01-21T17:01:16.263Z,75.59
2019-01-21T17:02:16.498Z,80.96
2019-01-21T17:04:20.640Z,81.24
2019-01-21T17:05:20.874Z,81.43
2019-01-21T17:07:25.030Z,87.29
2019-01-21T17:08:25.276Z,83.33
2019-01-21T17:10:29.439Z,80.87
2019-01-21T17:11:29.669Z,79.36
2019-01-21T17:13:33.817Z,71.62
2019-01-21T17:14:34.051Z,71.53
2019-01-21T17:16:27.142Z,66.71
2019-01-21T17:17:27.381Z,66.52
2019-01-21T17:19:31.528Z,66.62
2019-01-21T17:20:31.756Z,65.86
2019-01-21T17:22:35.945Z,72.28
2019-01-21T17:23:36.154Z,70.39
2019-01-21T17:25:40.333Z,69.64
2019-01-21T17:26:40.562Z,70.68
2019-01-21T17:28:44.715Z,69.64
2019-01-21T17:29:44.937Z,71.91
2019-01-21T17:31:49.111Z,81.43
2019-01-21T17:32:49.352Z,77.09
2019-01-21T17:34:53.487Z,78.60
2019-01-21T17:35:53.719Z,76.06
2019-01-21T17:37:57.890Z,72.62
2019-01-21T17:38:58.125Z,73.75
2019-01-21T17:41:02.265Z,74.88
2019-01-21T17:42:02.508Z,76.58
2019-01-21T17:44:06.657Z,75.07
2019-01-21T17:45:06.890Z,75.73
2019-01-21T17:47:11.060Z,79.46
2019-01-21T17:48:11.277Z,78.38
2019-01-21T17:50:15.420Z,75.78
2019-01-21T17:51:15.654Z,75.92
2019-01-21T17:53:19.825Z,75.54
2019-01-21T17:54:20.059Z,74.51
2019-01-21T17:56:13.128Z,74.51
2019-01-21T17:57:13.361Z,76.30
2019-01-21T17:59:17.523Z,76.43
2019-01-21T18:00:17.762Z,77.66
2019-01-21T18:02:21.922Z,75.30
2019-01-21T18:03:22.156Z,76.15
2019-01-21T18:05:26.300Z,78.23
2019-01-21T18:06:26.529Z,80.58
2019-01-21T18:08:38.211Z,79.27
2019-01-21T18:09:30.878Z,78.04
2019-01-21T18:11:37.767Z,77.09
2019-01-21T18:12:35.291Z,76.43
2019-01-21T18:14:39.513Z,72.56
2019-01-21T18:15:41.025Z,74.92
2019-01-21T18:17:43.939Z,75.30
2019-01-21T18:18:44.261Z,74.92
2019-01-21T18:20:48.419Z,75.83
2019-01-21T18:21:48.652Z,75.07
2019-01-21T18:23:52.888Z,70.26
2019-01-21T18:24:53.148Z,67.53
2019-01-21T18:26:57.316Z,68.66
2019-01-21T18:27:57.655Z,66.96
2019-01-21T18:30:02.138Z,68.19
2019-01-21T18:31:02.106Z,67.91
2019-01-21T18:33:06.298Z,68.29
2019-01-21T18:34:06.590Z,69.13
2019-01-21T18:35:59.657Z,68.19
2019-01-21T18:36:59.932Z,63.47
2019-01-21T18:39:04.094Z,61.58
2019-01-21T18:40:04.362Z,55.74
2019-01-21T18:42:08.530Z,53.85
2019-01-21T18:43:08.761Z,51.97
2019-01-21T18:45:12.921Z,49.51
2019-01-21T18:46:13.161Z,50.27
2019-01-21T18:48:17.376Z,56.40
2019-01-21T18:49:22.800Z,56.09
2019-01-21T18:51:21.793Z,48.27
2019-01-21T18:52:22.054Z,35.91
2019-01-21T18:54:26.317Z,34.52
2019-01-21T18:55:26.541Z,33.29
2019-01-21T18:57:30.759Z,39.42
2019-01-21T18:58:30.972Z,40.65
2019-01-21T19:00:36.160Z,44.40
2019-01-21T19:01:36.379Z,43.27
2019-01-21T19:03:40.553Z,40.06
2019-01-21T19:04:40.769Z,34.50
2019-01-21T19:06:33.858Z,29.88
2019-01-21T19:07:34.086Z,32.25
2019-01-21T19:09:38.247Z,33.29
2019-01-21T19:10:38.478Z,35.93
2019-01-21T19:12:42.621Z,32.63
2019-01-21T19:13:42.869Z,32.92
2019-01-21T19:15:48.039Z,29.99
2019-01-21T19:16:48.283Z,28.11
2019-01-21T19:18:52.448Z,30.65
2019-01-21T19:19:52.685Z,34.89
2019-01-21T19:21:56.818Z,39.04
2019-01-21T19:22:57.055Z,40.08
2019-01-21T19:25:01.212Z,45.46
2019-01-21T19:26:01.450Z,46.97
2019-01-21T19:28:05.572Z,47.72
2019-01-21T19:29:05.808Z,48.00
2019-01-21T19:31:09.973Z,52.53
2019-01-21T19:32:10.197Z,48.85
2019-01-21T19:34:14.357Z,50.84
2019-01-21T19:35:14.590Z,51.68
2019-01-21T19:37:18.733Z,50.55
2019-01-21T19:38:18.968Z,51.21
2019-01-21T19:40:23.125Z,50.55
2019-01-21T19:41:23.364Z,48.76